sensor_id;sensor_type;location;lat;lon;timestamp;P1;durP1;ratioP1;P2;durP2;ratioP2
83054;SDS011;72877;52.130;5.582;2024-02-26T00:00:52;11.48;;;5.05;;
83054;SDS011;72877;52.130;5.582;2024-02-26T00:03:17;6.57;;;4.83;;
83054;SDS011;72877;52.130;5.582;2024-02-26T00:05:42;6.80;;;5.47;;
83054;SDS011;72877;52.130;5.582;2024-02-26T00:08:07;6.77;;;5.07;;
83054;SDS011;72877;52.130;5.582;2024-02-26T00:10:32;8.00;;;4.93;;
83054;SDS011;72877;52.130;5.582;2024-02-26T00:12:57;6.33;;;4.73;;
83054;SDS011;72877;52.130;5.582;2024-02-26T00:15:23;7.60;;;5.37;;
83054;SDS011;72877;52.130;5.582;2024-02-26T00:17:48;7.23;;;5.47;;
83054;SDS011;72877;52.130;5.582;2024-02-26T00:20:13;6.83;;;5.00;;
83054;SDS011;72877;52.130;5.582;2024-02-26T00:22:38;6.55;;;5.43;;
83054;SDS011;72877;52.130;5.582;2024-02-26T00:25:04;6.00;;;5.43;;
83054;SDS011;72877;52.130;5.582;2024-02-26T00:27:29;7.78;;;5.70;;
83054;SDS011;72877;52.130;5.582;2024-02-26T00:29:54;6.68;;;5.75;;
83054;SDS011;72877;52.130;5.582;2024-02-26T00:32:19;6.30;;;5.67;;
83054;SDS011;72877;52.130;5.582;2024-02-26T00:34:44;8.87;;;5.60;;
83054;SDS011;72877;52.130;5.582;2024-02-26T00:37:10;8.40;;;6.57;;
83054;SDS011;72877;52.130;5.582;2024-02-26T00:39:35;8.70;;;6.50;;
83054;SDS011;72877;52.130;5.582;2024-02-26T00:42:00;7.10;;;6.35;;
83054;SDS011;72877;52.130;5.582;2024-02-26T00:44:25;7.40;;;5.67;;
83054;SDS011;72877;52.130;5.582;2024-02-26T00:46:51;10.30;;;6.53;;
83054;SDS011;72877;52.130;5.582;2024-02-26T00:49:16;7.47;;;6.40;;
83054;SDS011;72877;52.130;5.582;2024-02-26T00:51:41;7.93;;;6.25;;
83054;SDS011;72877;52.130;5.582;2024-02-26T00:54:06;7.25;;;6.47;;
83054;SDS011;72877;52.130;5.582;2024-02-26T00:56:31;11.53;;;7.97;;
83054;SDS011;72877;52.130;5.582;2024-02-26T00:58:56;12.67;;;7.13;;
83054;SDS011;72877;52.130;5.582;2024-02-26T01:01:22;8.30;;;6.47;;
83054;SDS011;72877;52.130;5.582;2024-02-26T01:03:47;11.57;;;6.80;;
83054;SDS011;72877;52.130;5.582;2024-02-26T01:06:12;11.40;;;6.83;;
83054;SDS011;72877;52.130;5.582;2024-02-26T01:08:37;7.05;;;6.35;;
83054;SDS011;72877;52.130;5.582;2024-02-26T01:11:03;6.60;;;5.80;;
83054;SDS011;72877;52.130;5.582;2024-02-26T01:13:28;10.45;;;7.43;;
83054;SDS011;72877;52.130;5.582;2024-02-26T01:15:53;10.23;;;6.72;;
83054;SDS011;72877;52.130;5.582;2024-02-26T01:18:18;9.95;;;6.47;;
83054;SDS011;72877;52.130;5.582;2024-02-26T01:20:43;9.68;;;7.07;;
83054;SDS011;72877;52.130;5.582;2024-02-26T01:23:08;8.03;;;6.80;;
83054;SDS011;72877;52.130;5.582;2024-02-26T01:25:34;8.10;;;6.55;;
83054;SDS011;72877;52.130;5.582;2024-02-26T01:27:59;11.75;;;7.18;;
83054;SDS011;72877;52.130;5.582;2024-02-26T01:30:24;7.63;;;6.70;;
83054;SDS011;72877;52.130;5.582;2024-02-26T01:32:49;8.43;;;7.07;;
83054;SDS011;72877;52.130;5.582;2024-02-26T01:35:14;8.10;;;7.28;;
83054;SDS011;72877;52.130;5.582;2024-02-26T01:37:40;7.63;;;6.70;;
83054;SDS011;72877;52.130;5.582;2024-02-26T01:40:06;11.23;;;8.10;;
83054;SDS011;72877;52.130;5.582;2024-02-26T01:42:32;8.90;;;7.80;;
83054;SDS011;72877;52.130;5.582;2024-02-26T01:44:57;10.57;;;7.60;;
83054;SDS011;72877;52.130;5.582;2024-02-26T01:47:22;10.45;;;7.78;;
83054;SDS011;72877;52.130;5.582;2024-02-26T01:49:48;13.18;;;7.35;;
83054;SDS011;72877;52.130;5.582;2024-02-26T01:52:13;8.80;;;7.68;;
83054;SDS011;72877;52.130;5.582;2024-02-26T01:54:39;9.45;;;8.10;;
83054;SDS011;72877;52.130;5.582;2024-02-26T01:57:05;11.07;;;8.13;;
83054;SDS011;72877;52.130;5.582;2024-02-26T01:59:31;12.70;;;7.95;;
83054;SDS011;72877;52.130;5.582;2024-02-26T02:01:57;13.70;;;8.07;;
83054;SDS011;72877;52.130;5.582;2024-02-26T02:04:23;10.52;;;7.78;;
83054;SDS011;72877;52.130;5.582;2024-02-26T02:06:49;10.82;;;7.75;;
83054;SDS011;72877;52.130;5.582;2024-02-26T02:09:15;9.95;;;7.65;;
83054;SDS011;72877;52.130;5.582;2024-02-26T02:11:40;10.48;;;8.02;;
83054;SDS011;72877;52.130;5.582;2024-02-26T02:14:06;10.25;;;7.88;;
83054;SDS011;72877;52.130;5.582;2024-02-26T02:16:31;11.00;;;7.83;;
83054;SDS011;72877;52.130;5.582;2024-02-26T02:18:57;10.75;;;7.93;;
83054;SDS011;72877;52.130;5.582;2024-02-26T02:21:22;12.23;;;7.03;;
83054;SDS011;72877;52.130;5.582;2024-02-26T02:23:48;10.40;;;8.27;;
83054;SDS011;72877;52.130;5.582;2024-02-26T02:26:14;11.55;;;8.40;;
83054;SDS011;72877;52.130;5.582;2024-02-26T02:28:39;13.35;;;7.43;;
83054;SDS011;72877;52.130;5.582;2024-02-26T02:31:04;10.70;;;7.70;;
83054;SDS011;72877;52.130;5.582;2024-02-26T02:33:29;9.65;;;7.07;;
83054;SDS011;72877;52.130;5.582;2024-02-26T02:35:55;10.98;;;6.97;;
83054;SDS011;72877;52.130;5.582;2024-02-26T02:38:20;9.07;;;7.05;;
83054;SDS011;72877;52.130;5.582;2024-02-26T02:40:45;10.18;;;7.10;;
83054;SDS011;72877;52.130;5.582;2024-02-26T02:43:10;10.00;;;7.57;;
83054;SDS011;72877;52.130;5.582;2024-02-26T02:45:36;13.77;;;7.23;;
83054;SDS011;72877;52.130;5.582;2024-02-26T02:48:01;12.37;;;7.83;;
83054;SDS011;72877;52.130;5.582;2024-02-26T02:50:26;13.30;;;8.03;;
83054;SDS011;72877;52.130;5.582;2024-02-26T02:52:51;12.30;;;8.37;;
83054;SDS011;72877;52.130;5.582;2024-02-26T02:55:16;11.85;;;7.65;;
83054;SDS011;72877;52.130;5.582;2024-02-26T02:57:41;10.27;;;7.47;;
83054;SDS011;72877;52.130;5.582;2024-02-26T03:00:10;12.50;;;6.93;;
83054;SDS011;72877;52.130;5.582;2024-02-26T03:02:36;11.63;;;8.00;;
83054;SDS011;72877;52.130;5.582;2024-02-26T03:05:02;11.25;;;8.13;;
83054;SDS011;72877;52.130;5.582;2024-02-26T03:07:27;10.85;;;7.97;;
83054;SDS011;72877;52.130;5.582;2024-02-26T03:09:52;10.63;;;7.67;;
83054;SDS011;72877;52.130;5.582;2024-02-26T03:12:18;12.93;;;8.90;;
83054;SDS011;72877;52.130;5.582;2024-02-26T03:14:43;9.50;;;7.07;;
83054;SDS011;72877;52.130;5.582;2024-02-26T03:17:09;11.23;;;7.43;;
83054;SDS011;72877;52.130;5.582;2024-02-26T03:19:34;12.00;;;8.00;;
83054;SDS011;72877;52.130;5.582;2024-02-26T03:21:59;13.20;;;7.57;;
83054;SDS011;72877;52.130;5.582;2024-02-26T03:24:24;14.90;;;7.43;;
83054;SDS011;72877;52.130;5.582;2024-02-26T03:26:49;11.90;;;8.23;;
83054;SDS011;72877;52.130;5.582;2024-02-26T03:29:15;11.63;;;8.30;;
83054;SDS011;72877;52.130;5.582;2024-02-26T03:31:41;12.93;;;8.17;;
83054;SDS011;72877;52.130;5.582;2024-02-26T03:34:06;11.95;;;8.50;;
83054;SDS011;72877;52.130;5.582;2024-02-26T03:36:31;14.80;;;9.10;;
83054;SDS011;72877;52.130;5.582;2024-02-26T03:38:56;15.07;;;8.68;;
83054;SDS011;72877;52.130;5.582;2024-02-26T03:41:21;11.50;;;7.87;;
83054;SDS011;72877;52.130;5.582;2024-02-26T03:43:46;13.20;;;8.43;;
83054;SDS011;72877;52.130;5.582;2024-02-26T03:46:12;16.48;;;8.55;;
83054;SDS011;72877;52.130;5.582;2024-02-26T03:48:38;13.93;;;9.10;;
83054;SDS011;72877;52.130;5.582;2024-02-26T03:51:03;12.23;;;8.43;;
83054;SDS011;72877;52.130;5.582;2024-02-26T03:53:29;11.48;;;8.35;;
83054;SDS011;72877;52.130;5.582;2024-02-26T03:55:54;12.73;;;8.48;;
83054;SDS011;72877;52.130;5.582;2024-02-26T03:58:20;14.77;;;9.68;;
83054;SDS011;72877;52.130;5.582;2024-02-26T04:00:45;15.45;;;9.43;;
83054;SDS011;72877;52.130;5.582;2024-02-26T04:03:12;13.50;;;9.00;;
83054;SDS011;72877;52.130;5.582;2024-02-26T04:05:37;11.43;;;9.00;;
83054;SDS011;72877;52.130;5.582;2024-02-26T04:08:02;13.37;;;8.90;;
83054;SDS011;72877;52.130;5.582;2024-02-26T04:10:29;13.15;;;8.93;;
83054;SDS011;72877;52.130;5.582;2024-02-26T04:12:54;15.23;;;8.27;;
83054;SDS011;72877;52.130;5.582;2024-02-26T04:15:19;15.03;;;9.50;;
83054;SDS011;72877;52.130;5.582;2024-02-26T04:17:44;14.65;;;10.15;;
83054;SDS011;72877;52.130;5.582;2024-02-26T04:20:13;12.30;;;8.68;;
83054;SDS011;72877;52.130;5.582;2024-02-26T04:22:38;12.35;;;8.57;;
83054;SDS011;72877;52.130;5.582;2024-02-26T04:25:03;13.97;;;8.80;;
83054;SDS011;72877;52.130;5.582;2024-02-26T04:27:29;14.13;;;9.40;;
83054;SDS011;72877;52.130;5.582;2024-02-26T04:29:54;12.85;;;8.85;;
83054;SDS011;72877;52.130;5.582;2024-02-26T04:32:19;12.73;;;8.73;;
83054;SDS011;72877;52.130;5.582;2024-02-26T04:34:44;13.00;;;8.38;;
83054;SDS011;72877;52.130;5.582;2024-02-26T04:37:09;12.68;;;8.38;;
83054;SDS011;72877;52.130;5.582;2024-02-26T04:39:34;12.43;;;8.57;;
83054;SDS011;72877;52.130;5.582;2024-02-26T04:42:00;13.90;;;8.50;;
83054;SDS011;72877;52.130;5.582;2024-02-26T04:44:28;17.20;;;9.00;;
83054;SDS011;72877;52.130;5.582;2024-02-26T04:46:53;14.40;;;8.50;;
83054;SDS011;72877;52.130;5.582;2024-02-26T04:49:19;16.33;;;9.07;;
83054;SDS011;72877;52.130;5.582;2024-02-26T04:51:44;11.70;;;8.00;;
83054;SDS011;72877;52.130;5.582;2024-02-26T04:54:09;14.40;;;8.48;;
83054;SDS011;72877;52.130;5.582;2024-02-26T04:56:34;12.33;;;8.80;;
83054;SDS011;72877;52.130;5.582;2024-02-26T04:59:00;13.05;;;9.02;;
83054;SDS011;72877;52.130;5.582;2024-02-26T05:01:25;15.20;;;9.30;;
83054;SDS011;72877;52.130;5.582;2024-02-26T05:03:50;14.90;;;9.10;;
83054;SDS011;72877;52.130;5.582;2024-02-26T05:06:15;12.18;;;8.90;;
83054;SDS011;72877;52.130;5.582;2024-02-26T05:08:40;12.70;;;8.80;;
83054;SDS011;72877;52.130;5.582;2024-02-26T05:11:06;15.35;;;9.35;;
83054;SDS011;72877;52.130;5.582;2024-02-26T05:13:31;12.43;;;8.60;;
83054;SDS011;72877;52.130;5.582;2024-02-26T05:15:56;13.00;;;8.90;;
83054;SDS011;72877;52.130;5.582;2024-02-26T05:18:22;13.18;;;8.98;;
83054;SDS011;72877;52.130;5.582;2024-02-26T05:20:47;13.43;;;8.90;;
83054;SDS011;72877;52.130;5.582;2024-02-26T05:23:12;13.73;;;9.02;;
83054;SDS011;72877;52.130;5.582;2024-02-26T05:25:38;14.82;;;9.68;;
83054;SDS011;72877;52.130;5.582;2024-02-26T05:28:03;14.15;;;9.40;;
83054;SDS011;72877;52.130;5.582;2024-02-26T05:30:29;19.48;;;10.05;;
83054;SDS011;72877;52.130;5.582;2024-02-26T05:32:54;15.52;;;10.48;;
83054;SDS011;72877;52.130;5.582;2024-02-26T05:35:19;11.93;;;8.63;;
83054;SDS011;72877;52.130;5.582;2024-02-26T05:37:44;14.27;;;8.27;;
83054;SDS011;72877;52.130;5.582;2024-02-26T05:40:10;17.80;;;11.23;;
83054;SDS011;72877;52.130;5.582;2024-02-26T05:42:35;15.38;;;8.90;;
83054;SDS011;72877;52.130;5.582;2024-02-26T05:45:00;14.98;;;9.73;;
83054;SDS011;72877;52.130;5.582;2024-02-26T05:47:31;14.18;;;9.63;;
83054;SDS011;72877;52.130;5.582;2024-02-26T05:49:56;14.55;;;9.57;;
83054;SDS011;72877;52.130;5.582;2024-02-26T05:52:23;13.85;;;9.93;;
83054;SDS011;72877;52.130;5.582;2024-02-26T05:54:48;14.60;;;9.10;;
83054;SDS011;72877;52.130;5.582;2024-02-26T05:57:14;16.23;;;9.93;;
83054;SDS011;72877;52.130;5.582;2024-02-26T05:59:39;16.90;;;11.53;;
83054;SDS011;72877;52.130;5.582;2024-02-26T06:02:04;20.80;;;11.53;;
83054;SDS011;72877;52.130;5.582;2024-02-26T06:04:29;19.30;;;11.23;;
83054;SDS011;72877;52.130;5.582;2024-02-26T06:06:54;16.73;;;10.15;;
83054;SDS011;72877;52.130;5.582;2024-02-26T06:09:20;16.20;;;9.97;;
83054;SDS011;72877;52.130;5.582;2024-02-26T06:11:45;17.70;;;10.37;;
83054;SDS011;72877;52.130;5.582;2024-02-26T06:14:10;17.45;;;10.93;;
83054;SDS011;72877;52.130;5.582;2024-02-26T06:16:37;19.23;;;12.32;;
83054;SDS011;72877;52.130;5.582;2024-02-26T06:19:03;17.92;;;10.80;;
83054;SDS011;72877;52.130;5.582;2024-02-26T06:21:28;21.67;;;12.02;;
83054;SDS011;72877;52.130;5.582;2024-02-26T06:23:53;23.83;;;13.00;;
83054;SDS011;72877;52.130;5.582;2024-02-26T06:26:19;19.67;;;11.75;;
83054;SDS011;72877;52.130;5.582;2024-02-26T06:28:44;20.38;;;11.70;;
83054;SDS011;72877;52.130;5.582;2024-02-26T06:31:10;18.27;;;11.68;;
83054;SDS011;72877;52.130;5.582;2024-02-26T06:33:35;18.20;;;11.38;;
83054;SDS011;72877;52.130;5.582;2024-02-26T06:36:00;18.40;;;11.70;;
83054;SDS011;72877;52.130;5.582;2024-02-26T06:38:29;19.95;;;12.18;;
83054;SDS011;72877;52.130;5.582;2024-02-26T06:40:54;26.13;;;14.02;;
83054;SDS011;72877;52.130;5.582;2024-02-26T06:43:19;23.23;;;13.10;;
83054;SDS011;72877;52.130;5.582;2024-02-26T06:45:44;24.80;;;14.20;;
83054;SDS011;72877;52.130;5.582;2024-02-26T06:48:09;21.63;;;12.75;;
83054;SDS011;72877;52.130;5.582;2024-02-26T06:50:35;21.05;;;13.05;;
83054;SDS011;72877;52.130;5.582;2024-02-26T06:53:00;23.27;;;13.63;;
83054;SDS011;72877;52.130;5.582;2024-02-26T06:55:25;24.50;;;13.40;;
83054;SDS011;72877;52.130;5.582;2024-02-26T06:57:51;23.13;;;13.30;;
83054;SDS011;72877;52.130;5.582;2024-02-26T07:00:17;23.52;;;13.35;;
83054;SDS011;72877;52.130;5.582;2024-02-26T07:02:42;29.27;;;14.25;;
83054;SDS011;72877;52.130;5.582;2024-02-26T07:05:08;25.20;;;13.68;;
83054;SDS011;72877;52.130;5.582;2024-02-26T07:07:33;26.38;;;14.15;;
83054;SDS011;72877;52.130;5.582;2024-02-26T07:09:58;27.97;;;14.70;;
83054;SDS011;72877;52.130;5.582;2024-02-26T07:12:23;29.75;;;16.10;;
83054;SDS011;72877;52.130;5.582;2024-02-26T07:14:49;30.17;;;14.32;;
83054;SDS011;72877;52.130;5.582;2024-02-26T07:17:14;27.15;;;15.05;;
83054;SDS011;72877;52.130;5.582;2024-02-26T07:19:41;27.83;;;15.27;;
83054;SDS011;72877;52.130;5.582;2024-02-26T07:22:06;29.40;;;15.63;;
83054;SDS011;72877;52.130;5.582;2024-02-26T07:24:31;31.02;;;14.90;;
83054;SDS011;72877;52.130;5.582;2024-02-26T07:26:57;31.27;;;16.23;;
83054;SDS011;72877;52.130;5.582;2024-02-26T07:29:22;28.47;;;16.13;;
83054;SDS011;72877;52.130;5.582;2024-02-26T07:31:47;35.33;;;18.48;;
83054;SDS011;72877;52.130;5.582;2024-02-26T07:34:12;30.40;;;17.15;;
83054;SDS011;72877;52.130;5.582;2024-02-26T07:36:38;33.55;;;18.52;;
83054;SDS011;72877;52.130;5.582;2024-02-26T07:39:03;34.53;;;17.00;;
83054;SDS011;72877;52.130;5.582;2024-02-26T07:41:28;40.50;;;20.33;;
83054;SDS011;72877;52.130;5.582;2024-02-26T07:43:53;33.63;;;17.67;;
83054;SDS011;72877;52.130;5.582;2024-02-26T07:49:06;38.75;;;19.08;;
83054;SDS011;72877;52.130;5.582;2024-02-26T07:51:31;36.43;;;17.43;;
83054;SDS011;72877;52.130;5.582;2024-02-26T07:53:56;37.27;;;18.50;;
83054;SDS011;72877;52.130;5.582;2024-02-26T07:56:22;38.03;;;19.05;;
83054;SDS011;72877;52.130;5.582;2024-02-26T07:58:47;36.63;;;19.90;;
83054;SDS011;72877;52.130;5.582;2024-02-26T08:01:18;36.38;;;19.13;;
83054;SDS011;72877;52.130;5.582;2024-02-26T08:03:43;34.42;;;19.42;;
83054;SDS011;72877;52.130;5.582;2024-02-26T08:06:08;36.88;;;20.63;;
83054;SDS011;72877;52.130;5.582;2024-02-26T08:08:33;42.33;;;20.15;;
83054;SDS011;72877;52.130;5.582;2024-02-26T08:10:59;35.95;;;18.75;;
83054;SDS011;72877;52.130;5.582;2024-02-26T08:13:24;31.83;;;17.67;;
83054;SDS011;72877;52.130;5.582;2024-02-26T08:15:49;34.80;;;18.20;;
83054;SDS011;72877;52.130;5.582;2024-02-26T08:18:15;32.55;;;17.20;;
83054;SDS011;72877;52.130;5.582;2024-02-26T08:20:41;31.17;;;17.30;;
83054;SDS011;72877;52.130;5.582;2024-02-26T08:23:06;30.35;;;16.35;;
83054;SDS011;72877;52.130;5.582;2024-02-26T08:25:31;26.88;;;16.20;;
83054;SDS011;72877;52.130;5.582;2024-02-26T08:27:56;31.17;;;15.73;;
83054;SDS011;72877;52.130;5.582;2024-02-26T08:30:21;34.05;;;16.63;;
83054;SDS011;72877;52.130;5.582;2024-02-26T08:32:47;28.50;;;15.82;;
83054;SDS011;72877;52.130;5.582;2024-02-26T08:35:12;25.40;;;15.32;;
83054;SDS011;72877;52.130;5.582;2024-02-26T08:37:38;22.63;;;13.50;;
83054;SDS011;72877;52.130;5.582;2024-02-26T08:42:37;20.92;;;13.40;;
83054;SDS011;72877;52.130;5.582;2024-02-26T08:45:02;19.92;;;12.38;;
83054;SDS011;72877;52.130;5.582;2024-02-26T08:47:27;23.50;;;14.10;;
83054;SDS011;72877;52.130;5.582;2024-02-26T08:49:53;21.27;;;12.05;;
83054;SDS011;72877;52.130;5.582;2024-02-26T08:52:18;19.05;;;12.68;;
83054;SDS011;72877;52.130;5.582;2024-02-26T08:54:43;20.17;;;12.17;;
83054;SDS011;72877;52.130;5.582;2024-02-26T08:57:08;20.17;;;12.27;;
83054;SDS011;72877;52.130;5.582;2024-02-26T08:59:34;17.70;;;11.45;;
83054;SDS011;72877;52.130;5.582;2024-02-26T09:01:59;19.08;;;10.85;;
83054;SDS011;72877;52.130;5.582;2024-02-26T09:04:25;17.90;;;11.03;;
83054;SDS011;72877;52.130;5.582;2024-02-26T09:06:51;17.38;;;11.05;;
83054;SDS011;72877;52.130;5.582;2024-02-26T09:09:16;15.90;;;10.20;;
83054;SDS011;72877;52.130;5.582;2024-02-26T09:11:41;16.47;;;10.60;;
83054;SDS011;72877;52.130;5.582;2024-02-26T09:14:07;18.20;;;11.45;;
83054;SDS011;72877;52.130;5.582;2024-02-26T09:16:32;15.18;;;9.85;;
83054;SDS011;72877;52.130;5.582;2024-02-26T09:18:57;14.97;;;9.80;;
83054;SDS011;72877;52.130;5.582;2024-02-26T09:21:23;16.83;;;9.70;;
83054;SDS011;72877;52.130;5.582;2024-02-26T09:23:49;15.77;;;10.23;;
83054;SDS011;72877;52.130;5.582;2024-02-26T09:26:15;16.33;;;10.73;;
83054;SDS011;72877;52.130;5.582;2024-02-26T09:28:40;13.40;;;8.85;;
83054;SDS011;72877;52.130;5.582;2024-02-26T09:31:05;14.63;;;9.32;;
83054;SDS011;72877;52.130;5.582;2024-02-26T09:33:33;12.98;;;8.75;;
83054;SDS011;72877;52.130;5.582;2024-02-26T09:35:59;16.95;;;9.13;;
83054;SDS011;72877;52.130;5.582;2024-02-26T09:38:25;14.73;;;9.52;;
83054;SDS011;72877;52.130;5.582;2024-02-26T09:40:50;13.60;;;8.63;;
83054;SDS011;72877;52.130;5.582;2024-02-26T09:43:16;13.50;;;8.93;;
83054;SDS011;72877;52.130;5.582;2024-02-26T09:45:42;15.90;;;9.50;;
83054;SDS011;72877;52.130;5.582;2024-02-26T09:48:08;14.55;;;9.40;;
83054;SDS011;72877;52.130;5.582;2024-02-26T09:50:33;13.88;;;8.43;;
83054;SDS011;72877;52.130;5.582;2024-02-26T09:52:59;14.35;;;9.20;;
83054;SDS011;72877;52.130;5.582;2024-02-26T09:55:25;11.85;;;8.35;;
83054;SDS011;72877;52.130;5.582;2024-02-26T09:57:51;13.00;;;8.00;;
83054;SDS011;72877;52.130;5.582;2024-02-26T10:00:20;13.40;;;7.47;;
83054;SDS011;72877;52.130;5.582;2024-02-26T10:02:46;12.93;;;7.95;;
83054;SDS011;72877;52.130;5.582;2024-02-26T10:05:12;12.90;;;8.02;;
83054;SDS011;72877;52.130;5.582;2024-02-26T10:07:39;13.60;;;7.65;;
83054;SDS011;72877;52.130;5.582;2024-02-26T10:10:04;15.27;;;7.97;;
83054;SDS011;72877;52.130;5.582;2024-02-26T10:12:30;15.13;;;7.65;;
83054;SDS011;72877;52.130;5.582;2024-02-26T10:14:56;11.02;;;6.95;;
83054;SDS011;72877;52.130;5.582;2024-02-26T10:17:21;12.57;;;8.35;;
83054;SDS011;72877;52.130;5.582;2024-02-26T10:19:46;10.98;;;7.28;;
83054;SDS011;72877;52.130;5.582;2024-02-26T10:22:11;11.95;;;7.75;;
83054;SDS011;72877;52.130;5.582;2024-02-26T10:24:37;14.50;;;8.75;;
83054;SDS011;72877;52.130;5.582;2024-02-26T10:27:02;14.10;;;8.23;;
83054;SDS011;72877;52.130;5.582;2024-02-26T10:29:27;14.77;;;9.07;;
83054;SDS011;72877;52.130;5.582;2024-02-26T10:31:53;15.57;;;8.35;;
83054;SDS011;72877;52.130;5.582;2024-02-26T10:34:18;12.55;;;8.10;;
83054;SDS011;72877;52.130;5.582;2024-02-26T10:36:44;13.52;;;8.75;;
83054;SDS011;72877;52.130;5.582;2024-02-26T10:39:09;13.52;;;7.55;;
83054;SDS011;72877;52.130;5.582;2024-02-26T10:41:34;13.27;;;8.32;;
83054;SDS011;72877;52.130;5.582;2024-02-26T10:44:00;12.18;;;7.63;;
83054;SDS011;72877;52.130;5.582;2024-02-26T10:46:25;11.75;;;7.80;;
83054;SDS011;72877;52.130;5.582;2024-02-26T10:48:51;13.40;;;7.32;;
83054;SDS011;72877;52.130;5.582;2024-02-26T10:51:17;18.42;;;7.88;;
83054;SDS011;72877;52.130;5.582;2024-02-26T10:53:45;12.07;;;7.63;;
83054;SDS011;72877;52.130;5.582;2024-02-26T10:56:10;11.15;;;7.20;;
83054;SDS011;72877;52.130;5.582;2024-02-26T10:58:36;9.35;;;6.45;;
83054;SDS011;72877;52.130;5.582;2024-02-26T11:01:02;11.25;;;7.35;;
83054;SDS011;72877;52.130;5.582;2024-02-26T11:03:28;11.15;;;7.13;;
83054;SDS011;72877;52.130;5.582;2024-02-26T11:05:57;11.18;;;6.30;;
83054;SDS011;72877;52.130;5.582;2024-02-26T11:08:22;13.13;;;7.68;;
83054;SDS011;72877;52.130;5.582;2024-02-26T11:10:50;10.48;;;6.60;;
83054;SDS011;72877;52.130;5.582;2024-02-26T11:13:17;11.38;;;6.50;;
83054;SDS011;72877;52.130;5.582;2024-02-26T11:15:43;13.43;;;8.30;;
83054;SDS011;72877;52.130;5.582;2024-02-26T11:18:09;9.77;;;6.88;;
83054;SDS011;72877;52.130;5.582;2024-02-26T11:20:37;13.38;;;7.85;;
83054;SDS011;72877;52.130;5.582;2024-02-26T11:23:03;14.63;;;8.00;;
83054;SDS011;72877;52.130;5.582;2024-02-26T11:25:28;12.90;;;6.75;;
83054;SDS011;72877;52.130;5.582;2024-02-26T11:27:55;11.35;;;6.63;;
83054;SDS011;72877;52.130;5.582;2024-02-26T11:30:22;12.68;;;6.55;;
83054;SDS011;72877;52.130;5.582;2024-02-26T11:32:49;10.38;;;6.68;;
83054;SDS011;72877;52.130;5.582;2024-02-26T11:35:15;8.88;;;6.38;;
83054;SDS011;72877;52.130;5.582;2024-02-26T11:37:50;11.00;;;7.35;;
83054;SDS011;72877;52.130;5.582;2024-02-26T11:40:16;11.90;;;7.63;;
83054;SDS011;72877;52.130;5.582;2024-02-26T11:42:45;11.10;;;7.47;;
83054;SDS011;72877;52.130;5.582;2024-02-26T11:47:56;10.65;;;7.57;;
83054;SDS011;72877;52.130;5.582;2024-02-26T11:50:34;13.80;;;8.10;;
83054;SDS011;72877;52.130;5.582;2024-02-26T11:55:44;11.30;;;6.68;;
83054;SDS011;72877;52.130;5.582;2024-02-26T11:58:09;12.90;;;7.88;;
83054;SDS011;72877;52.130;5.582;2024-02-26T12:00:34;14.40;;;7.20;;
83054;SDS011;72877;52.130;5.582;2024-02-26T12:03:00;9.27;;;6.57;;
83054;SDS011;72877;52.130;5.582;2024-02-26T12:05:32;13.70;;;7.57;;
83054;SDS011;72877;52.130;5.582;2024-02-26T12:10:32;13.40;;;7.30;;
83054;SDS011;72877;52.130;5.582;2024-02-26T12:13:16;10.73;;;7.55;;
83054;SDS011;72877;52.130;5.582;2024-02-26T12:15:42;11.75;;;7.60;;
83054;SDS011;72877;52.130;5.582;2024-02-26T12:18:08;11.10;;;7.10;;
83054;SDS011;72877;52.130;5.582;2024-02-26T12:20:37;11.38;;;7.40;;
83054;SDS011;72877;52.130;5.582;2024-02-26T12:23:02;14.13;;;7.35;;
83054;SDS011;72877;52.130;5.582;2024-02-26T12:25:29;11.05;;;6.82;;
83054;SDS011;72877;52.130;5.582;2024-02-26T12:27:55;9.32;;;6.80;;
83054;SDS011;72877;52.130;5.582;2024-02-26T12:30:21;11.57;;;7.18;;
83054;SDS011;72877;52.130;5.582;2024-02-26T12:32:47;10.32;;;7.00;;
83054;SDS011;72877;52.130;5.582;2024-02-26T12:35:13;12.68;;;7.78;;
83054;SDS011;72877;52.130;5.582;2024-02-26T12:37:38;10.40;;;6.40;;
83054;SDS011;72877;52.130;5.582;2024-02-26T12:40:05;9.13;;;6.40;;
83054;SDS011;72877;52.130;5.582;2024-02-26T12:42:31;10.75;;;6.68;;
83054;SDS011;72877;52.130;5.582;2024-02-26T12:44:58;11.50;;;7.65;;
83054;SDS011;72877;52.130;5.582;2024-02-26T12:47:23;14.53;;;8.17;;
83054;SDS011;72877;52.130;5.582;2024-02-26T12:49:48;10.30;;;6.55;;
83054;SDS011;72877;52.130;5.582;2024-02-26T12:52:14;11.40;;;7.20;;
83054;SDS011;72877;52.130;5.582;2024-02-26T12:54:39;10.68;;;6.95;;
83054;SDS011;72877;52.130;5.582;2024-02-26T12:57:06;11.50;;;7.35;;
83054;SDS011;72877;52.130;5.582;2024-02-26T12:59:33;12.23;;;7.47;;
83054;SDS011;72877;52.130;5.582;2024-02-26T13:01:58;10.38;;;6.88;;
83054;SDS011;72877;52.130;5.582;2024-02-26T13:04:23;9.98;;;6.75;;
83054;SDS011;72877;52.130;5.582;2024-02-26T13:06:49;10.02;;;7.20;;
83054;SDS011;72877;52.130;5.582;2024-02-26T13:09:14;10.90;;;7.13;;
83054;SDS011;72877;52.130;5.582;2024-02-26T13:11:40;10.68;;;6.75;;
83054;SDS011;72877;52.130;5.582;2024-02-26T13:14:05;8.45;;;6.05;;
83054;SDS011;72877;52.130;5.582;2024-02-26T13:16:31;11.55;;;6.47;;
83054;SDS011;72877;52.130;5.582;2024-02-26T13:18:57;10.23;;;6.95;;
83054;SDS011;72877;52.130;5.582;2024-02-26T13:21:32;9.27;;;6.20;;
83054;SDS011;72877;52.130;5.582;2024-02-26T13:23:58;12.40;;;6.50;;
83054;SDS011;72877;52.130;5.582;2024-02-26T13:26:23;8.15;;;6.43;;
83054;SDS011;72877;52.130;5.582;2024-02-26T13:28:59;14.70;;;7.05;;
83054;SDS011;72877;52.130;5.582;2024-02-26T13:31:24;10.20;;;7.40;;
83054;SDS011;72877;52.130;5.582;2024-02-26T13:33:49;12.55;;;7.03;;
83054;SDS011;72877;52.130;5.582;2024-02-26T13:36:14;14.83;;;7.37;;
83054;SDS011;72877;52.130;5.582;2024-02-26T13:38:39;9.23;;;6.55;;
83054;SDS011;72877;52.130;5.582;2024-02-26T13:41:05;9.50;;;6.50;;
83054;SDS011;72877;52.130;5.582;2024-02-26T13:43:30;10.07;;;6.73;;
83054;SDS011;72877;52.130;5.582;2024-02-26T13:45:55;8.77;;;6.67;;
83054;SDS011;72877;52.130;5.582;2024-02-26T13:48:21;10.23;;;6.60;;
83054;SDS011;72877;52.130;5.582;2024-02-26T13:50:47;8.40;;;6.15;;
83054;SDS011;72877;52.130;5.582;2024-02-26T13:53:13;9.40;;;6.35;;
83054;SDS011;72877;52.130;5.582;2024-02-26T13:55:39;10.05;;;6.43;;
83054;SDS011;72877;52.130;5.582;2024-02-26T13:58:05;10.32;;;6.40;;
83054;SDS011;72877;52.130;5.582;2024-02-26T14:00:30;10.93;;;6.85;;
83054;SDS011;72877;52.130;5.582;2024-02-26T14:02:59;10.23;;;6.28;;
83054;SDS011;72877;52.130;5.582;2024-02-26T14:05:25;7.85;;;5.55;;
83054;SDS011;72877;52.130;5.582;2024-02-26T14:07:50;9.27;;;6.70;;
83054;SDS011;72877;52.130;5.582;2024-02-26T14:10:16;10.68;;;6.15;;
83054;SDS011;72877;52.130;5.582;2024-02-26T14:12:41;10.43;;;6.50;;
83054;SDS011;72877;52.130;5.582;2024-02-26T14:15:06;8.25;;;5.93;;
83054;SDS011;72877;52.130;5.582;2024-02-26T14:17:32;13.20;;;6.90;;
83054;SDS011;72877;52.130;5.582;2024-02-26T14:19:57;9.07;;;5.90;;
83054;SDS011;72877;52.130;5.582;2024-02-26T14:22:22;9.40;;;6.40;;
83054;SDS011;72877;52.130;5.582;2024-02-26T14:24:47;9.07;;;5.95;;
83054;SDS011;72877;52.130;5.582;2024-02-26T14:27:13;8.25;;;5.93;;
83054;SDS011;72877;52.130;5.582;2024-02-26T14:29:42;8.48;;;5.68;;
83054;SDS011;72877;52.130;5.582;2024-02-26T14:32:08;8.00;;;5.47;;
83054;SDS011;72877;52.130;5.582;2024-02-26T14:34:33;9.50;;;5.95;;
83054;SDS011;72877;52.130;5.582;2024-02-26T14:36:58;6.43;;;4.88;;